Em1003 — WDI9476 — position and weather

sailwx.info

Track history (hours):
 
Tides and Currents Weather Stations Pressure Air Temp Water Temp Dewpoint Dewpoint Depression Visibility Wind Speed Wind Dir Waves Ship Positions

Em1003

Owner: Dutra Group, San Rafael, CA. More information available from US FCC via Universal Licensing System and Coast Guard Vessel Documentation Center.

Last reported at 2018-Jun-13 13:50 UTC. Time now 2018-Jun-23 11:42 UTC.
Position N 37°30' W 122°29'.
Warning: this ship's position is 9 days out of date.

; draft 7 m.

MMSI: 367748970.

Date/timePositionNaut miles runAvg speedWind from/ knotsBaromVisibWave heightAir tempDewpointWater temp
2018-Jun-13 13:50N 37°30' W 122°29'  
2018-Jun-09 15:17N 37°30' W 122°29'1 1.0
2018-Jun-09 14:30N 37°29' W 122°29'1 0.0
2018-Jun-08 19:40N 37°30' W 122°29'0 0.1
2018-Jun-08 19:31N 37°30' W 122°29'0 0.0
2018-Jun-08 18:59N 37°30' W 122°29'0 0.0
2018-Jun-08 18:30N 37°30' W 122°29'0 0.0
2018-Jun-08 17:59N 37°30' W 122°29'0 0.0
2018-Jun-08 17:31N 37°30' W 122°29'2 3.4
2018-Jun-08 17:01N 37°28' W 122°30'3 6.2
2018-Jun-08 16:31N 37°31' W 122°32'3 6.4
2018-Jun-08 16:00N 37°34' W 122°34'3 6.3
2018-Jun-08 15:31N 37°37' W 122°34'4 6.1
2018-Jun-08 14:53N 37°41' W 122°33'3 5.9
2018-Jun-08 14:20N 37°44' W 122°33'2 5.6
2018-Jun-08 14:00N 37°46' W 122°33'2 5.1
2018-Jun-08 13:30N 37°48' W 122°31'2 5.0
2018-Jun-08 13:01N 37°49' W 122°28'3 5.6
2018-Jun-08 12:30N 37°51' W 122°25'3 5.8
2018-Jun-08 11:59N 37°54' W 122°24'2 0.1
2018-Jun-07 21:08N 37°54' W 122°22'0 0.0
2018-Jun-07 20:55N 37°54' W 122°22'0 0.0
2018-Jun-07 18:18N 37°54' W 122°22'0 0.0
2018-Jun-07 17:51N 37°54' W 122°22'0 0.0
2018-Jun-07 17:30N 37°54' W 122°22'0 0.0
2018-Jun-07 17:00N 37°54' W 122°22'0 0.0
2018-Jun-07 16:30N 37°54' W 122°22'0 0.0
2018-Jun-07 16:00N 37°54' W 122°22'2 3.8
2018-Jun-07 15:30N 37°53' W 122°24'4 7.2
2018-Jun-07 15:00N 37°50' W 122°22'3 0.3
2018-Jun-07 05:45N 37°49' W 122°18'0 0.3
2018-Jun-07 05:30N 37°49' W 122°19'0 0.1
2018-Jun-07 05:00N 37°49' W 122°19'0 0.0
2018-Jun-06 01:55N 37°49' W 122°18'0 0.2
2018-Jun-06 01:30N 37°49' W 122°19'0 0.0
2018-Jun-06 01:00N 37°49' W 122°19'0 0.1
2018-Jun-06 00:30N 37°49' W 122°19'0 0.0
2018-Jun-06 00:00N 37°49' W 122°19'0 0.0
2018-Jun-05 23:30N 37°49' W 122°19'0 0.0
2018-Jun-05 23:00N 37°49' W 122°19'0 0.0
2018-Jun-05 22:30N 37°49' W 122°19'0 0.0
2018-Jun-05 22:00N 37°49' W 122°19'0 0.0
2018-Jun-05 21:30N 37°49' W 122°19'0 0.0
2018-Jun-05 21:00N 37°49' W 122°19'0 0.0
2018-Jun-05 20:30N 37°49' W 122°19'0 0.2
2018-Jun-05 20:00N 37°49' W 122°19'0 0.1
2018-Jun-05 19:30N 37°49' W 122°19'0 0.0
2018-Jun-05 19:00N 37°49' W 122°19'0 0.0
2018-Jun-05 18:30N 37°49' W 122°19'0 0.0
2018-Jun-05 18:00N 37°49' W 122°19'0 0.0
2018-Jun-05 17:30N 37°49' W 122°19'0 0.0
2018-Jun-05 17:00N 37°49' W 122°19'0 0.0
2018-Jun-05 16:30N 37°49' W 122°19'0 0.0
2018-Jun-05 16:00N 37°49' W 122°19'0 0.0
2018-Jun-05 15:30N 37°49' W 122°19'0 0.0
2018-Jun-05 15:00N 37°49' W 122°19'0 0.0
2018-Jun-05 14:30N 37°49' W 122°19'0 0.0
2018-Jun-05 14:00N 37°49' W 122°19'0 0.2
2018-Jun-05 13:30N 37°49' W 122°19'0 0.0
2018-Jun-04 21:15N 37°49' W 122°19'0 0.0
2018-Jun-04 21:00N 37°49' W 122°19'0 0.0
2018-Jun-04 17:35N 37°49' W 122°19'0 0.1
2018-Jun-04 17:30N 37°49' W 122°19'0 0.0
2018-Jun-03 16:52N 37°49' W 122°18'0 0.0
2018-Jun-03 16:30N 37°49' W 122°18'  
Track history (hours):
 
Tides and Currents Weather Stations Pressure Air Temp Water Temp Dewpoint Dewpoint Depression Visibility Wind Speed Wind Dir Waves Ship Positions

Em1003

Owner: Dutra Group, San Rafael, CA. More information available from US FCC via Universal Licensing System and Coast Guard Vessel Documentation Center.

Last reported at 2018-Jun-13 13:50 UTC. Time now 2018-Jun-23 11:42 UTC.
Position N 37°30' W 122°29'.
Warning: this ship's position is 9 days out of date.

; draft 7 m.

MMSI: 367748970.

Date/timePositionNaut miles runAvg speedWind from/ knotsBaromVisibWave heightAir tempDewpointWater temp
2018-Jun-13 13:50N 37°30' W 122°29'  
2018-Jun-09 15:17N 37°30' W 122°29'1 1.0
2018-Jun-09 14:30N 37°29' W 122°29'1 0.0
2018-Jun-08 19:40N 37°30' W 122°29'0 0.1
2018-Jun-08 19:31N 37°30' W 122°29'0 0.0
2018-Jun-08 18:59N 37°30' W 122°29'0 0.0
2018-Jun-08 18:30N 37°30' W 122°29'0 0.0
2018-Jun-08 17:59N 37°30' W 122°29'0 0.0
2018-Jun-08 17:31N 37°30' W 122°29'2 3.4
2018-Jun-08 17:01N 37°28' W 122°30'3 6.2
2018-Jun-08 16:31N 37°31' W 122°32'3 6.4
2018-Jun-08 16:00N 37°34' W 122°34'3 6.3
2018-Jun-08 15:31N 37°37' W 122°34'4 6.1
2018-Jun-08 14:53N 37°41' W 122°33'3 5.9
2018-Jun-08 14:20N 37°44' W 122°33'2 5.6
2018-Jun-08 14:00N 37°46' W 122°33'2 5.1
2018-Jun-08 13:30N 37°48' W 122°31'2 5.0
2018-Jun-08 13:01N 37°49' W 122°28'3 5.6
2018-Jun-08 12:30N 37°51' W 122°25'3 5.8
2018-Jun-08 11:59N 37°54' W 122°24'2 0.1
2018-Jun-07 21:08N 37°54' W 122°22'0 0.0
2018-Jun-07 20:55N 37°54' W 122°22'0 0.0
2018-Jun-07 18:18N 37°54' W 122°22'0 0.0
2018-Jun-07 17:51N 37°54' W 122°22'0 0.0
2018-Jun-07 17:30N 37°54' W 122°22'0 0.0
2018-Jun-07 17:00N 37°54' W 122°22'0 0.0
2018-Jun-07 16:30N 37°54' W 122°22'0 0.0
2018-Jun-07 16:00N 37°54' W 122°22'2 3.8
2018-Jun-07 15:30N 37°53' W 122°24'4 7.2
2018-Jun-07 15:00N 37°50' W 122°22'3 0.3
2018-Jun-07 05:45N 37°49' W 122°18'0 0.3
2018-Jun-07 05:30N 37°49' W 122°19'0 0.1
2018-Jun-07 05:00N 37°49' W 122°19'0 0.0
2018-Jun-06 01:55N 37°49' W 122°18'0 0.2
2018-Jun-06 01:30N 37°49' W 122°19'0 0.0
2018-Jun-06 01:00N 37°49' W 122°19'0 0.1
2018-Jun-06 00:30N 37°49' W 122°19'0 0.0
2018-Jun-06 00:00N 37°49' W 122°19'0 0.0
2018-Jun-05 23:30N 37°49' W 122°19'0 0.0
2018-Jun-05 23:00N 37°49' W 122°19'0 0.0
2018-Jun-05 22:30N 37°49' W 122°19'0 0.0
2018-Jun-05 22:00N 37°49' W 122°19'0 0.0
2018-Jun-05 21:30N 37°49' W 122°19'0 0.0
2018-Jun-05 21:00N 37°49' W 122°19'0 0.0
2018-Jun-05 20:30N 37°49' W 122°19'0 0.2
2018-Jun-05 20:00N 37°49' W 122°19'0 0.1
2018-Jun-05 19:30N 37°49' W 122°19'0 0.0
2018-Jun-05 19:00N 37°49' W 122°19'0 0.0
2018-Jun-05 18:30N 37°49' W 122°19'0 0.0
2018-Jun-05 18:00N 37°49' W 122°19'0 0.0
2018-Jun-05 17:30N 37°49' W 122°19'0 0.0
2018-Jun-05 17:00N 37°49' W 122°19'0 0.0
2018-Jun-05 16:30N 37°49' W 122°19'0 0.0
2018-Jun-05 16:00N 37°49' W 122°19'0 0.0
2018-Jun-05 15:30N 37°49' W 122°19'0 0.0
2018-Jun-05 15:00N 37°49' W 122°19'0 0.0
2018-Jun-05 14:30N 37°49' W 122°19'0 0.0
2018-Jun-05 14:00N 37°49' W 122°19'0 0.2
2018-Jun-05 13:30N 37°49' W 122°19'0 0.0
2018-Jun-04 21:15N 37°49' W 122°19'0 0.0
2018-Jun-04 21:00N 37°49' W 122°19'0 0.0
2018-Jun-04 17:35N 37°49' W 122°19'0 0.1
2018-Jun-04 17:30N 37°49' W 122°19'0 0.0
2018-Jun-03 16:52N 37°49' W 122°18'0 0.0
2018-Jun-03 16:30N 37°49' W 122°18'  

Dump ship's entire track history